Time;durP1;ratioP1;P1;durP2;ratioP2;P2;SDS_P1;SDS_P2;PMS_P1;PMS_P2;Temp;Humidity;BMP_temperature;BMP_pressure;BME280_temperature;BME280_humidity;BME280_pressure;Samples;Min_cycle;Max_cycle;Signal;HPM_P1;HPM_P2
2020/12/12 00:02:21;;;;;;;10.93;6.53;;;9.80;99.90;;;;;;5073640;28;20221;-78
2020/12/12 00:04:48;;;;;;;13.13;6.83;;;9.80;99.90;;;;;;5074380;28;20206;-78
2020/12/12 00:07:14;;;;;;;12.67;7.53;;;9.90;99.90;;;;;;5073951;28;20213;-80
2020/12/12 00:09:40;;;;;;;12.93;7.37;;;9.90;99.90;;;;;;5074773;28;20200;-78
2020/12/12 00:12:07;;;;;;;13.10;7.23;;;10.00;99.90;;;;;;5073859;28;20213;-78
2020/12/12 00:14:34;;;;;;;14.97;7.50;;;9.90;99.90;;;;;;5071459;28;20298;-76
2020/12/12 00:17:00;;;;;;;12.03;7.00;;;9.90;99.90;;;;;;5073326;28;20214;-77
2020/12/12 00:19:26;;;;;;;13.80;6.80;;;9.90;99.90;;;;;;5073502;28;20208;-77
2020/12/12 00:21:54;;;;;;;13.50;7.37;;;9.90;99.90;;;;;;5074691;28;20233;-78
2020/12/12 00:24:21;;;;;;;10.73;6.87;;;9.90;99.90;;;;;;5073222;28;20283;-79
2020/12/12 00:26:48;;;;;;;12.80;7.40;;;9.90;99.90;;;;;;5073496;28;20201;-76
2020/12/12 00:29:16;;;;;;;13.20;7.63;;;9.80;99.90;;;;;;5076771;28;20201;-78
2020/12/12 00:31:43;;;;;;;12.17;7.50;;;9.80;99.90;;;;;;5072779;28;20204;-78
2020/12/12 00:34:10;;;;;;;14.33;7.80;;;9.80;99.90;;;;;;5073567;28;20244;-79
2020/12/12 00:36:40;;;;;;;11.87;7.30;;;9.70;99.90;;;;;;5071679;28;20206;-77
2020/12/12 00:39:06;;;;;;;15.53;7.43;;;9.70;99.90;;;;;;5072870;28;20307;-79
2020/12/12 00:41:35;;;;;;;14.63;7.20;;;9.70;99.90;;;;;;5074775;28;20720;-79
2020/12/12 00:44:02;;;;;;;15.10;7.77;;;9.70;99.90;;;;;;5074189;28;20209;-78
2020/12/12 00:46:28;;;;;;;16.77;7.53;;;9.70;99.90;;;;;;5074959;28;20206;-78
2020/12/12 00:48:56;;;;;;;13.07;7.63;;;9.70;99.90;;;;;;5072311;28;20304;-78
2020/12/12 00:51:22;;;;;;;12.37;7.20;;;9.70;99.90;;;;;;5073048;28;20194;-77
2020/12/12 00:53:48;;;;;;;16.07;8.03;;;9.80;99.90;;;;;;5072076;28;20551;-80
2020/12/12 00:56:15;;;;;;;14.83;7.70;;;9.80;99.90;;;;;;5070701;28;20201;-78
2020/12/12 00:58:41;;;;;;;18.43;7.60;;;9.80;99.90;;;;;;5073244;28;20652;-77
2020/12/12 01:01:08;;;;;;;19.67;8.17;;;9.80;99.90;;;;;;5074570;28;20674;-79
2020/12/12 01:03:34;;;;;;;17.70;8.80;;;9.80;99.90;;;;;;5074188;28;20229;-78
2020/12/12 01:06:02;;;;;;;21.53;9.20;;;9.90;99.90;;;;;;5071712;28;20750;-78
2020/12/12 01:08:28;;;;;;;17.07;8.77;;;9.90;99.90;;;;;;5073691;28;20289;-77
2020/12/12 01:10:54;;;;;;;17.17;9.07;;;9.90;99.90;;;;;;5071262;28;20211;-78
2020/12/12 01:13:21;;;;;;;21.87;9.10;;;9.90;99.90;;;;;;5073805;28;20212;-78
2020/12/12 01:15:47;;;;;;;14.63;8.23;;;9.90;99.90;;;;;;5075252;28;20225;-77
2020/12/12 01:18:13;;;;;;;19.67;9.30;;;9.80;99.90;;;;;;5075129;28;20201;-79
2020/12/12 01:20:41;;;;;;;18.00;9.03;;;9.80;99.90;;;;;;5072062;28;20287;-78
2020/12/12 01:23:08;;;;;;;17.60;8.73;;;9.90;99.90;;;;;;5072234;28;20233;-78
2020/12/12 01:25:37;;;;;;;18.43;8.80;;;9.90;99.90;;;;;;5075386;28;20201;-78
2020/12/12 01:28:04;;;;;;;17.83;8.93;;;9.80;99.90;;;;;;5072334;28;20547;-79
2020/12/12 01:30:30;;;;;;;18.53;8.70;;;9.70;99.90;;;;;;5076595;28;20376;-78
2020/12/12 01:32:57;;;;;;;27.13;9.50;;;9.70;99.90;;;;;;5073757;28;20635;-78
2020/12/12 01:35:23;;;;;;;18.40;8.83;;;9.70;99.90;;;;;;5071269;28;20198;-77
2020/12/12 01:37:49;;;;;;;19.73;9.07;;;9.70;99.90;;;;;;5072329;28;20198;-77
2020/12/12 01:40:17;;;;;;;23.50;9.40;;;9.50;99.90;;;;;;5069715;28;20648;-80
2020/12/12 01:42:43;;;;;;;17.63;8.70;;;9.50;99.90;;;;;;5076582;28;20248;-78
2020/12/12 01:45:10;;;;;;;17.03;8.57;;;9.40;99.90;;;;;;5072653;28;20280;-79
2020/12/12 01:47:37;;;;;;;19.77;9.50;;;9.50;99.90;;;;;;5073593;28;20207;-79
2020/12/12 01:50:04;;;;;;;22.00;9.80;;;9.50;99.90;;;;;;5074691;28;20288;-78
2020/12/12 01:52:31;;;;;;;26.37;10.20;;;9.50;99.90;;;;;;5075479;28;20207;-79
2020/12/12 01:54:57;;;;;;;25.53;10.23;;;9.50;99.90;;;;;;5073619;28;20582;-78
2020/12/12 01:57:24;;;;;;;21.03;9.70;;;9.50;99.90;;;;;;5073937;28;20627;-79
2020/12/12 01:59:52;;;;;;;23.20;9.27;;;9.50;99.90;;;;;;5082382;28;20207;-77
2020/12/12 02:02:20;;;;;;;23.80;9.70;;;9.40;99.90;;;;;;5076150;28;20222;-79
2020/12/12 02:04:48;;;;;;;29.13;9.93;;;9.40;99.90;;;;;;5079202;28;20245;-78
2020/12/12 02:07:15;;;;;;;25.60;9.87;;;9.50;99.90;;;;;;5076403;28;20559;-79
2020/12/12 02:09:42;;;;;;;22.37;9.67;;;9.50;99.90;;;;;;5075625;28;20639;-78
2020/12/12 02:12:09;;;;;;;23.43;10.13;;;9.60;99.90;;;;;;5077221;28;20674;-79
2020/12/12 02:14:38;;;;;;;19.37;9.37;;;9.60;99.90;;;;;;5074551;28;20682;-79
2020/12/12 02:17:05;;;;;;;24.87;10.50;;;9.60;99.90;;;;;;5079422;28;20673;-77
2020/12/12 02:19:32;;;;;;;17.67;9.57;;;9.60;99.90;;;;;;5077513;28;20200;-77
2020/12/12 02:22:00;;;;;;;21.87;9.60;;;9.60;99.90;;;;;;5093241;28;20251;-77
2020/12/12 02:24:29;;;;;;;26.93;9.00;;;9.60;99.90;;;;;;5093259;28;20203;-79
2020/12/12 02:26:56;;;;;;;25.83;9.90;;;9.60;99.90;;;;;;5092689;28;20211;-80
2020/12/12 02:29:25;;;;;;;25.17;10.20;;;9.70;99.90;;;;;;5092746;28;20206;-79
2020/12/12 02:31:52;;;;;;;20.43;10.10;;;9.70;99.90;;;;;;5093481;28;20268;-76
2020/12/12 02:34:19;;;;;;;30.67;10.30;;;9.70;99.90;;;;;;5091688;28;20291;-79
2020/12/12 02:36:45;;;;;;;24.10;9.17;;;9.70;99.90;;;;;;5080836;28;20205;-80
2020/12/12 02:39:15;;;;;;;20.43;10.00;;;9.80;99.90;;;;;;5073719;28;20730;-79
2020/12/12 02:41:41;;;;;;;26.10;10.63;;;9.80;99.90;;;;;;5084922;28;20295;-80
2020/12/12 02:44:08;;;;;;;32.87;10.57;;;9.90;99.90;;;;;;5075315;28;20247;-78
2020/12/12 02:46:34;;;;;;;26.37;10.67;;;9.80;99.90;;;;;;5073575;28;20715;-78
2020/12/12 02:49:01;;;;;;;26.03;10.43;;;9.80;99.90;;;;;;5073816;28;20207;-80
2020/12/12 02:51:27;;;;;;;23.57;9.93;;;9.80;99.90;;;;;;5073343;28;20208;-79
2020/12/12 02:53:53;;;;;;;27.37;10.47;;;9.80;99.90;;;;;;5072702;28;20653;-75
2020/12/12 02:56:21;;;;;;;29.37;9.70;;;9.70;99.90;;;;;;5074055;28;20782;-78
2020/12/12 02:58:47;;;;;;;22.60;9.53;;;9.80;99.90;;;;;;5073493;28;20204;-78
2020/12/12 03:01:13;;;;;;;25.50;9.80;;;9.80;99.90;;;;;;5072744;28;20290;-77
2020/12/12 03:03:40;;;;;;;28.57;10.20;;;10.00;99.90;;;;;;5073185;28;20684;-79
2020/12/12 03:06:06;;;;;;;22.97;10.50;;;9.90;99.90;;;;;;5072249;28;20202;-81
2020/12/12 03:08:32;;;;;;;35.83;10.20;;;9.90;99.90;;;;;;5073996;28;20291;-79
2020/12/12 03:10:59;;;;;;;27.87;10.13;;;10.00;99.90;;;;;;5072350;28;20466;-79
2020/12/12 03:13:26;;;;;;;26.37;10.93;;;10.10;99.90;;;;;;5078065;28;20209;-78
2020/12/12 03:15:52;;;;;;;25.50;11.13;;;10.10;99.90;;;;;;5080725;28;20669;-78
2020/12/12 03:18:19;;;;;;;30.83;11.53;;;10.00;99.90;;;;;;5072667;28;20631;-77
2020/12/12 03:20:45;;;;;;;32.97;11.63;;;10.00;99.90;;;;;;5072224;28;20207;-78
2020/12/12 03:23:12;;;;;;;27.60;11.43;;;10.00;99.90;;;;;;5072250;28;20234;-78
2020/12/12 03:25:39;;;;;;;28.77;11.23;;;10.00;99.90;;;;;;5072323;28;20572;-78
2020/12/12 03:28:05;;;;;;;35.77;11.30;;;10.00;99.90;;;;;;5072818;28;20206;-78
2020/12/12 03:30:33;;;;;;;32.63;10.50;;;10.00;99.90;;;;;;5072079;28;20686;-79
2020/12/12 03:32:59;;;;;;;30.63;10.50;;;10.00;99.90;;;;;;5072375;28;20226;-80
2020/12/12 03:35:27;;;;;;;35.90;11.47;;;10.00;99.90;;;;;;5072358;28;20262;-78
2020/12/12 03:37:54;;;;;;;27.33;10.90;;;10.00;99.90;;;;;;5072045;28;20209;-79
2020/12/12 03:40:23;;;;;;;24.53;10.70;;;10.10;99.90;;;;;;5071606;28;20228;-77
2020/12/12 03:42:50;;;;;;;37.67;11.07;;;10.10;99.90;;;;;;5072961;28;20215;-77
2020/12/12 03:45:16;;;;;;;34.33;11.57;;;10.10;99.90;;;;;;5071632;28;20205;-78
2020/12/12 03:47:44;;;;;;;25.90;10.60;;;10.10;99.90;;;;;;5072782;28;20234;-77
2020/12/12 03:50:10;;;;;;;35.77;11.40;;;10.20;99.90;;;;;;5071691;28;20212;-78
2020/12/12 03:52:36;;;;;;;35.30;10.87;;;10.10;99.90;;;;;;5075359;28;20301;-78
2020/12/12 03:55:03;;;;;;;30.53;10.17;;;10.10;99.90;;;;;;5088130;28;20296;-77
2020/12/12 03:57:29;;;;;;;28.93;10.27;;;10.00;99.90;;;;;;5072326;28;20196;-76
2020/12/12 03:59:55;;;;;;;31.13;10.83;;;10.10;99.90;;;;;;5071402;28;20737;-78
2020/12/12 04:02:22;;;;;;;24.20;10.70;;;10.10;99.90;;;;;;5071808;28;20253;-79
2020/12/12 04:04:49;;;;;;;33.57;10.80;;;10.10;99.90;;;;;;5071265;28;20198;-79
2020/12/12 04:07:15;;;;;;;32.27;10.90;;;10.20;99.90;;;;;;5072081;28;20199;-79
2020/12/12 04:09:42;;;;;;;28.90;11.33;;;10.10;99.90;;;;;;5077295;28;20213;-80
2020/12/12 04:12:08;;;;;;;30.17;10.63;;;10.10;99.90;;;;;;5072347;28;20302;-79
2020/12/12 04:14:35;;;;;;;33.17;10.93;;;10.00;99.90;;;;;;5072162;28;20198;-78
2020/12/12 04:17:02;;;;;;;33.60;11.13;;;9.90;99.90;;;;;;5072329;28;20288;-79
2020/12/12 04:19:28;;;;;;;25.20;10.63;;;9.90;99.90;;;;;;5071643;28;20641;-79
2020/12/12 04:21:55;;;;;;;30.17;11.23;;;9.90;99.90;;;;;;5071482;28;20676;-79
2020/12/12 04:24:21;;;;;;;27.07;11.00;;;10.00;99.90;;;;;;5071806;28;20202;-78
2020/12/12 04:26:48;;;;;;;32.03;10.80;;;10.00;99.90;;;;;;5072156;28;20228;-78
2020/12/12 04:29:14;;;;;;;31.53;10.87;;;10.00;99.90;;;;;;5071000;28;20293;-77
2020/12/12 04:31:41;;;;;;;30.33;11.53;;;9.90;99.90;;;;;;5071616;28;20683;-77
2020/12/12 04:34:07;;;;;;;33.63;11.63;;;10.00;99.90;;;;;;5071216;28;20278;-77
2020/12/12 04:36:33;;;;;;;30.37;10.97;;;10.00;99.90;;;;;;5071706;28;20332;-79
2020/12/12 04:39:01;;;;;;;30.03;10.77;;;9.90;99.90;;;;;;5073666;28;20286;-79
2020/12/12 04:41:28;;;;;;;36.33;11.53;;;9.80;99.90;;;;;;5071138;28;20643;-78
2020/12/12 04:43:55;;;;;;;28.50;10.97;;;9.80;99.90;;;;;;5071077;28;20308;-78
2020/12/12 04:46:22;;;;;;;31.10;11.40;;;9.80;99.90;;;;;;5071311;28;20205;-79
2020/12/12 04:48:48;;;;;;;35.90;11.50;;;9.70;99.90;;;;;;5071019;28;20198;-77
2020/12/12 04:51:15;;;;;;;30.03;10.53;;;9.60;99.90;;;;;;5071476;28;20236;-78
2020/12/12 04:53:42;;;;;;;39.40;11.30;;;9.50;99.90;;;;;;5084754;28;20288;-77
2020/12/12 04:56:18;;;;;;;31.97;11.27;;;9.50;99.90;;;;;;5071222;28;20205;-78
2020/12/12 04:58:50;;;;;;;25.27;10.47;;;9.50;99.90;;;;;;5075521;28;20219;-78
2020/12/12 05:01:18;;;;;;;29.53;10.67;;;9.40;99.90;;;;;;5071143;28;20220;-77
2020/12/12 05:03:45;;;;;;;28.97;10.53;;;9.10;99.90;;;;;;5071461;28;20257;-77
2020/12/12 05:06:11;;;;;;;23.27;10.03;;;9.00;99.90;;;;;;5071316;28;20201;-77
2020/12/12 05:08:38;;;;;;;33.70;9.93;;;9.00;99.90;;;;;;5079500;28;20283;-77
2020/12/12 05:11:05;;;;;;;29.75;10.10;;;8.90;99.90;;;;;;5076436;28;20538;-78
2020/12/12 05:13:32;;;;;;;25.67;9.90;;;8.80;99.90;;;;;;5071703;28;20285;-77
2020/12/12 05:16:00;;;;;;;24.83;9.37;;;8.80;99.90;;;;;;5071578;28;20211;-78
2020/12/12 05:18:26;;;;;;;27.13;10.17;;;8.80;99.90;;;;;;5070917;28;20280;-79
2020/12/12 05:20:53;;;;;;;23.33;8.33;;;8.90;99.90;;;;;;5071334;28;20291;-78
2020/12/12 05:23:21;;;;;;;25.50;8.43;;;9.00;99.90;;;;;;5072153;28;20225;-77
2020/12/12 05:25:49;;;;;;;24.53;8.73;;;9.00;99.90;;;;;;5074827;28;20286;-79
2020/12/12 05:28:17;;;;;;;22.03;7.53;;;9.10;99.90;;;;;;5074609;28;20633;-77
2020/12/12 05:30:46;;;;;;;25.37;7.77;;;9.20;99.90;;;;;;5074701;28;20288;-78
2020/12/12 05:33:14;;;;;;;24.80;8.40;;;9.20;99.90;;;;;;5075182;28;20209;-78
2020/12/12 05:35:41;;;;;;;22.93;8.30;;;9.20;99.90;;;;;;5074623;28;20209;-79
2020/12/12 05:38:09;;;;;;;17.33;7.60;;;9.30;99.90;;;;;;5074988;28;20224;-76
2020/12/12 05:40:36;;;;;;;18.63;8.17;;;9.40;99.90;;;;;;5074036;28;20212;-74
2020/12/12 05:43:04;;;;;;;24.93;7.90;;;9.40;99.90;;;;;;5085623;28;20228;-78
2020/12/12 05:45:30;;;;;;;20.13;7.80;;;9.40;99.90;;;;;;5076268;28;20280;-78
2020/12/12 05:47:58;;;;;;;20.37;7.93;;;9.40;99.90;;;;;;5075334;28;20203;-79
2020/12/12 05:50:25;;;;;;;22.47;8.43;;;9.50;99.90;;;;;;5073807;28;20671;-78
2020/12/12 05:52:52;;;;;;;22.27;7.97;;;9.50;99.90;;;;;;5083821;28;20680;-77
2020/12/12 05:55:22;;;;;;;21.67;8.17;;;9.60;99.90;;;;;;5079360;28;20642;-78
2020/12/12 05:57:51;;;;;;;25.20;8.00;;;9.60;99.90;;;;;;5074379;28;20198;-77
2020/12/12 06:00:20;;;;;;;21.80;7.90;;;9.70;99.90;;;;;;5074134;28;20203;-79
2020/12/12 06:02:52;;;;;;;30.20;9.00;;;9.70;99.90;;;;;;5074521;28;20254;-76
2020/12/12 06:05:24;;;;;;;19.83;8.13;;;9.70;99.90;;;;;;5075617;28;20211;-76
2020/12/12 06:07:54;;;;;;;22.77;8.43;;;9.70;99.90;;;;;;5079645;28;20289;-79
2020/12/12 06:10:25;;;;;;;21.10;8.27;;;9.80;99.90;;;;;;5078346;28;20206;-77
2020/12/12 06:12:57;;;;;;;27.70;9.10;;;9.80;99.90;;;;;;5074044;28;20293;-78
2020/12/12 06:15:33;;;;;;;23.30;8.83;;;9.70;99.90;;;;;;5074243;28;20207;-79
2020/12/12 06:18:30;;;;;;;22.77;8.13;;;9.70;99.90;;;;;;5074223;28;20201;-79
2020/12/12 06:21:03;;;;;;;20.13;8.07;;;9.70;99.90;;;;;;5066857;28;20627;-78
2020/12/12 06:23:31;;;;;;;27.30;8.83;;;9.70;99.90;;;;;;5074300;28;20632;-79
2020/12/12 06:25:57;;;;;;;25.47;8.77;;;9.70;99.90;;;;;;5073443;28;20210;-77
2020/12/12 06:28:27;;;;;;;35.70;8.80;;;9.80;99.90;;;;;;5073829;28;20578;-79
2020/12/12 06:30:56;;;;;;;27.07;9.37;;;9.80;99.90;;;;;;5073319;28;20200;-78
2020/12/12 06:33:23;;;;;;;26.20;8.73;;;9.80;99.90;;;;;;5073456;28;20201;-78
2020/12/12 06:35:49;;;;;;;29.63;9.27;;;9.70;99.90;;;;;;5073478;28;20742;-78
2020/12/12 06:38:27;;;;;;;30.93;9.00;;;9.70;99.90;;;;;;5073334;28;20248;-78
2020/12/12 06:40:56;;;;;;;27.23;9.03;;;9.70;99.90;;;;;;5073481;28;20290;-78
2020/12/12 06:43:30;;;;;;;29.13;9.27;;;9.80;99.90;;;;;;5073452;28;20241;-79
2020/12/12 06:45:57;;;;;;;33.03;8.80;;;9.80;99.90;;;;;;5073806;28;20290;-77
2020/12/12 06:48:25;;;;;;;34.13;12.02;;;9.70;99.90;;;;;;5072714;28;20450;-78
2020/12/12 06:50:51;;;;;;;29.07;9.90;;;9.70;99.90;;;;;;5074677;28;20288;-78
2020/12/12 06:53:20;;;;;;;28.97;9.73;;;9.80;99.90;;;;;;5073638;28;20355;-79
2020/12/12 06:56:07;;;;;;;30.17;9.30;;;9.80;99.90;;;;;;5073197;28;20644;-79
2020/12/12 06:58:33;;;;;;;28.57;8.90;;;9.80;99.90;;;;;;5073435;28;20577;-78
2020/12/12 07:01:00;;;;;;;28.77;8.93;;;9.80;99.90;;;;;;5073126;28;20205;-78
2020/12/12 07:03:26;;;;;;;26.87;8.97;;;9.80;99.90;;;;;;5073246;28;20325;-78
2020/12/12 07:06:05;;;;;;;30.83;9.73;;;9.90;99.90;;;;;;5072489;28;20198;-78
2020/12/12 07:08:31;;;;;;;32.43;8.90;;;9.90;99.90;;;;;;5076352;28;20213;-79
2020/12/12 07:11:02;;;;;;;34.57;10.07;;;9.90;99.90;;;;;;5072324;28;20636;-78
2020/12/12 07:13:29;;;;;;;40.20;10.07;;;9.90;99.90;;;;;;5087013;28;20635;-78
2020/12/12 07:15:55;;;;;;;42.57;11.23;;;9.80;99.90;;;;;;5073076;28;20214;-77
2020/12/12 07:18:23;;;;;;;41.70;10.47;;;9.90;99.90;;;;;;5076354;28;20236;-77
2020/12/12 07:20:50;;;;;;;33.70;10.00;;;9.90;99.90;;;;;;5078446;28;20198;-79
2020/12/12 07:23:18;;;;;;;40.73;10.77;;;9.90;99.90;;;;;;5087000;28;20224;-78
2020/12/12 07:25:45;;;;;;;37.17;10.67;;;9.90;99.90;;;;;;5072801;28;20208;-78
2020/12/12 07:28:13;;;;;;;36.30;11.13;;;9.80;99.90;;;;;;5072784;28;20212;-78
2020/12/12 07:30:39;;;;;;;37.00;11.10;;;9.80;99.90;;;;;;5075846;28;20508;-78
2020/12/12 07:33:05;;;;;;;37.00;11.73;;;9.80;99.90;;;;;;5077352;28;20579;-78
2020/12/12 07:35:32;;;;;;;40.77;11.77;;;9.80;99.90;;;;;;5080742;28;20289;-77
2020/12/12 07:38:02;;;;;;;40.83;12.43;;;9.80;99.90;;;;;;5089686;28;20228;-78
2020/12/12 07:40:31;;;;;;;39.37;12.27;;;9.70;99.90;;;;;;5089943;28;20213;-77
2020/12/12 07:42:58;;;;;;;41.70;12.20;;;9.70;99.90;;;;;;5090869;28;20220;-78
2020/12/12 07:45:39;;;;;;;45.07;12.67;;;9.60;99.90;;;;;;5091333;28;20199;-77
2020/12/12 07:48:08;;;;;;;55.90;12.70;;;9.50;99.90;;;;;;5083915;28;20211;-77
2020/12/12 07:50:35;;;;;;;40.17;12.10;;;9.60;99.90;;;;;;5089261;28;20205;-77
2020/12/12 07:53:07;;;;;;;43.57;11.97;;;9.60;99.90;;;;;;5077919;28;20220;-77
2020/12/12 07:55:33;;;;;;;50.37;12.43;;;9.60;99.90;;;;;;5090347;28;20291;-77
2020/12/12 07:58:01;;;;;;;46.93;11.67;;;9.60;99.90;;;;;;5087540;28;20201;-77
2020/12/12 08:00:28;;;;;;;45.07;12.23;;;9.60;99.90;;;;;;5081583;28;20620;-78
2020/12/12 08:02:56;;;;;;;44.63;11.87;;;9.60;99.90;;;;;;5079806;28;20215;-77
2020/12/12 08:05:23;;;;;;;41.27;12.17;;;9.70;99.90;;;;;;5087830;28;20662;-79
2020/12/12 08:07:51;;;;;;;49.00;12.73;;;9.60;99.90;;;;;;5082957;28;20201;-77
2020/12/12 08:10:17;;;;;;;50.37;12.53;;;9.60;99.90;;;;;;5078821;28;20205;-76
2020/12/12 08:12:45;;;;;;;44.27;12.83;;;9.50;99.90;;;;;;5074848;28;20231;-77
2020/12/12 08:15:16;;;;;;;42.50;12.30;;;9.60;99.90;;;;;;5086160;28;20762;-77
2020/12/12 08:17:44;;;;;;;45.13;12.33;;;9.60;99.90;;;;;;5076495;28;20200;-81
2020/12/12 08:20:13;;;;;;;38.00;11.97;;;9.60;99.90;;;;;;5077750;28;20214;-76
2020/12/12 08:22:41;;;;;;;45.63;11.97;;;9.60;99.90;;;;;;5084379;28;20232;-77
2020/12/12 08:25:08;;;;;;;45.70;12.67;;;9.60;99.90;;;;;;5084222;28;20209;-78
2020/12/12 08:27:35;;;;;;;40.60;11.93;;;9.60;99.90;;;;;;5083751;28;20205;-76
2020/12/12 08:30:02;;;;;;;46.23;12.07;;;9.60;99.90;;;;;;5079472;28;20203;-78
2020/12/12 08:32:33;;;;;;;47.17;12.83;;;9.80;99.90;;;;;;5075074;28;20688;-78
2020/12/12 08:35:12;;;;;;;44.60;12.30;;;9.70;99.90;;;;;;5084987;28;20273;-79
2020/12/12 08:37:38;;;;;;;46.40;12.30;;;9.80;99.90;;;;;;5087848;28;20279;-77
2020/12/12 08:40:07;;;;;;;46.20;13.40;;;9.80;99.90;;;;;;5090172;28;20283;-78
2020/12/12 08:42:33;;;;;;;44.43;13.43;;;9.80;99.90;;;;;;5083487;28;20705;-76
2020/12/12 08:45:13;;;;;;;41.17;13.37;;;9.70;99.90;;;;;;5087425;28;20293;-76
2020/12/12 08:47:39;;;;;;;47.87;13.67;;;9.70;99.90;;;;;;5071528;28;20209;-78
2020/12/12 08:50:05;;;;;;;34.97;12.53;;;9.80;99.90;;;;;;5073579;28;20631;-77
2020/12/12 08:52:33;;;;;;;45.00;12.53;;;9.80;99.90;;;;;;5077686;28;20292;-77
2020/12/12 08:54:59;;;;;;;45.07;13.50;;;9.80;99.90;;;;;;5088494;28;20650;-76
2020/12/12 08:57:25;;;;;;;46.37;13.47;;;9.80;99.90;;;;;;5086410;28;20203;-76
2020/12/12 08:59:58;;;;;;;45.50;14.17;;;9.80;99.90;;;;;;5080435;28;20203;-78
2020/12/12 09:02:25;;;;;;;47.00;13.63;;;9.80;99.90;;;;;;5082330;28;20956;-78
2020/12/12 09:05:06;;;;;;;41.47;12.80;;;9.80;99.90;;;;;;5081059;28;20246;-78
2020/12/12 09:07:33;;;;;;;35.10;12.83;;;9.80;99.90;;;;;;5078368;28;20193;-79
2020/12/12 09:10:08;;;;;;;46.73;12.97;;;10.00;99.90;;;;;;5087779;28;20207;-78
2020/12/12 09:12:43;;;;;;;41.00;13.20;;;10.00;99.90;;;;;;5082743;28;20213;-78
2020/12/12 09:15:10;;;;;;;39.40;12.20;;;10.00;99.90;;;;;;5077858;28;20672;-78
2020/12/12 09:17:36;;;;;;;33.77;12.20;;;10.00;99.90;;;;;;5080601;28;20286;-78
2020/12/12 09:20:03;;;;;;;39.10;13.17;;;10.00;99.90;;;;;;5079056;28;20200;-77
2020/12/12 09:22:30;;;;;;;30.57;12.33;;;10.20;99.90;;;;;;5086020;28;20623;-78
2020/12/12 09:24:57;;;;;;;33.90;12.83;;;10.30;99.90;;;;;;5085697;28;20292;-78
2020/12/12 09:27:24;;;;;;;36.73;13.53;;;10.30;99.90;;;;;;5091733;28;20606;-78
2020/12/12 09:29:51;;;;;;;37.70;14.27;;;10.20;99.90;;;;;;5081566;28;20284;-77
2020/12/12 09:32:17;;;;;;;37.10;13.63;;;10.10;99.90;;;;;;5084521;28;20219;-76
2020/12/12 09:34:43;;;;;;;38.23;13.30;;;10.20;99.90;;;;;;5081259;28;20290;-77
2020/12/12 09:37:10;;;;;;;39.83;13.50;;;10.20;99.90;;;;;;5091584;28;20242;-77
2020/12/12 09:39:36;;;;;;;39.37;13.70;;;10.10;99.90;;;;;;5079044;28;20248;-76
2020/12/12 09:42:03;;;;;;;38.57;13.73;;;10.00;99.90;;;;;;5086902;28;20308;-77
2020/12/12 09:44:31;;;;;;;36.17;12.87;;;10.00;99.90;;;;;;5086122;28;20324;-79
2020/12/12 09:46:57;;;;;;;36.27;13.03;;;10.10;99.90;;;;;;5079377;28;20212;-76
2020/12/12 09:49:24;;;;;;;32.00;13.03;;;10.10;99.90;;;;;;5090723;28;20193;-77
2020/12/12 09:51:50;;;;;;;32.03;12.73;;;10.20;99.90;;;;;;5079526;28;20215;-78
2020/12/12 09:54:17;;;;;;;34.40;12.57;;;10.30;99.90;;;;;;5075839;28;20219;-79
2020/12/12 09:56:43;;;;;;;34.77;12.93;;;10.30;99.90;;;;;;5090257;28;20199;-76
2020/12/12 09:59:10;;;;;;;30.90;12.23;;;10.30;99.90;;;;;;5083911;28;20195;-77
2020/12/12 10:01:37;;;;;;;30.90;12.83;;;10.40;99.90;;;;;;5089848;28;20741;-78
2020/12/12 10:04:03;;;;;;;28.50;12.70;;;10.40;99.90;;;;;;5087250;28;20212;-77
2020/12/12 10:06:30;;;;;;;31.87;12.60;;;10.60;99.90;;;;;;5081873;28;20711;-76
2020/12/12 10:08:56;;;;;;;31.23;12.63;;;10.50;99.90;;;;;;5083810;28;20274;-77
2020/12/12 10:11:22;;;;;;;31.70;12.27;;;10.60;99.90;;;;;;5087087;28;20201;-76
2020/12/12 10:13:49;;;;;;;32.73;12.97;;;10.60;99.90;;;;;;5084119;28;20232;-78
2020/12/12 10:16:19;;;;;;;32.90;12.83;;;10.50;99.90;;;;;;5081322;28;20286;-78
2020/12/12 10:18:45;;;;;;;34.40;13.77;;;10.60;99.90;;;;;;5090765;28;20218;-77
2020/12/12 10:21:12;;;;;;;34.30;13.10;;;10.70;99.90;;;;;;5086438;28;20284;-78
2020/12/12 10:23:38;;;;;;;34.20;13.40;;;10.60;99.90;;;;;;5085354;28;20312;-77
2020/12/12 10:26:04;;;;;;;32.30;13.43;;;10.60;99.90;;;;;;5090792;28;20211;-77
2020/12/12 10:28:31;;;;;;;30.17;12.10;;;10.60;99.90;;;;;;5093379;28;20292;-78
2020/12/12 10:30:58;;;;;;;34.80;13.17;;;10.80;99.90;;;;;;5093877;28;20198;-77
2020/12/12 10:33:25;;;;;;;29.43;13.37;;;10.70;99.90;;;;;;5084868;28;20224;-78
2020/12/12 10:35:51;;;;;;;36.40;12.70;;;10.70;99.90;;;;;;5086211;28;20577;-75
2020/12/12 10:38:18;;;;;;;32.30;13.57;;;10.80;99.90;;;;;;5085537;28;20219;-78
2020/12/12 10:40:48;;;;;;;33.90;13.97;;;10.80;99.90;;;;;;5090482;28;20621;-78
2020/12/12 10:43:14;;;;;;;34.00;12.93;;;10.90;99.90;;;;;;5083922;28;20292;-78
2020/12/12 10:45:42;;;;;;;35.37;13.93;;;10.90;99.90;;;;;;5089228;28;20293;-77
2020/12/12 10:48:08;;;;;;;30.37;13.97;;;10.80;99.90;;;;;;5081812;28;20194;-76
2020/12/12 10:50:35;;;;;;;34.93;14.57;;;10.80;99.90;;;;;;5065142;28;20684;-77
2020/12/12 10:53:02;;;;;;;32.60;13.80;;;10.90;99.90;;;;;;5070504;28;20219;-80
2020/12/12 10:55:28;;;;;;;30.20;13.37;;;11.00;99.90;;;;;;5081342;28;20562;-77
2020/12/12 10:57:55;;;;;;;29.00;14.07;;;11.10;99.90;;;;;;5078715;28;20296;-79
2020/12/12 11:00:25;;;;;;;30.53;13.03;;;11.10;99.90;;;;;;5086388;28;20670;-77
2020/12/12 11:02:52;;;;;;;28.47;13.50;;;11.00;99.90;;;;;;5084732;28;20270;-77
2020/12/12 11:05:19;;;;;;;29.97;13.43;;;11.00;99.90;;;;;;5081436;28;20672;-78
2020/12/12 11:07:46;;;;;;;30.73;13.47;;;11.10;99.90;;;;;;5076239;28;20711;-78
2020/12/12 11:10:12;;;;;;;29.67;13.90;;;11.10;99.90;;;;;;5075177;28;20208;-78
2020/12/12 11:12:39;;;;;;;27.67;13.47;;;11.20;99.90;;;;;;5080632;28;20289;-76
2020/12/12 11:15:07;;;;;;;24.90;13.40;;;11.30;99.90;;;;;;5077951;28;20625;-77
2020/12/12 11:17:34;;;;;;;28.07;12.97;;;11.20;99.90;;;;;;5079740;28;20569;-76
2020/12/12 11:20:03;;;;;;;26.33;13.07;;;11.20;99.90;;;;;;5080182;28;20205;-77
2020/12/12 11:22:29;;;;;;;24.53;13.00;;;11.20;99.90;;;;;;5083161;28;20206;-78
2020/12/12 11:24:57;;;;;;;34.60;13.57;;;11.30;99.90;;;;;;5085400;28;20267;-78
2020/12/12 11:27:23;;;;;;;31.30;14.00;;;11.50;99.90;;;;;;5086569;28;20190;-77
2020/12/12 11:29:51;;;;;;;32.80;14.03;;;11.50;99.90;;;;;;5082250;28;20203;-77
2020/12/12 11:32:18;;;;;;;27.27;13.57;;;11.50;99.90;;;;;;5080612;28;20213;-76
2020/12/12 11:34:47;;;;;;;28.77;13.13;;;11.40;99.90;;;;;;5082474;28;20229;-77
2020/12/12 11:37:23;;;;;;;28.83;13.80;;;11.40;99.90;;;;;;5079128;28;20192;-78
2020/12/12 11:40:00;;;;;;;28.43;13.40;;;11.40;99.90;;;;;;5081468;28;20190;-76
2020/12/12 11:42:42;;;;;;;30.53;13.63;;;11.30;99.90;;;;;;5080364;28;20206;-78
2020/12/12 11:47:53;;;;;;;30.77;13.73;;;11.40;99.90;;;;;;5085738;28;20184;-77
2020/12/12 11:50:20;;;;;;;31.10;13.87;;;11.50;99.90;;;;;;5081210;28;20672;-77
2020/12/12 11:52:46;;;;;;;29.03;12.80;;;11.50;99.90;;;;;;5087470;28;20314;-77
2020/12/12 11:55:13;;;;;;;30.60;13.93;;;11.50;99.90;;;;;;5076963;28;20209;-77
2020/12/12 11:57:40;;;;;;;26.23;12.93;;;11.40;99.90;;;;;;5083011;28;20587;-77
2020/12/12 12:00:09;;;;;;;29.90;14.17;;;11.50;99.90;;;;;;5079784;28;20608;-77
2020/12/12 12:02:36;;;;;;;24.27;12.43;;;11.50;99.90;;;;;;5080688;28;20659;-76
2020/12/12 12:05:03;;;;;;;32.43;14.83;;;11.50;99.90;;;;;;5080048;28;20527;-78
2020/12/12 12:07:30;;;;;;;29.17;14.00;;;11.60;99.90;;;;;;5083685;28;20199;-76
2020/12/12 12:10:07;;;;;;;29.80;14.17;;;11.70;99.90;;;;;;5079529;28;20280;-78
2020/12/12 12:12:33;;;;;;;24.53;13.30;;;11.90;99.90;;;;;;5076309;28;20718;-79
2020/12/12 12:15:00;;;;;;;27.40;14.13;;;11.90;99.90;;;;;;5085242;28;20284;-78
2020/12/12 12:17:27;;;;;;;31.23;14.57;;;11.90;99.90;;;;;;5086449;28;20293;-78
2020/12/12 12:19:53;;;;;;;28.30;13.20;;;11.90;99.90;;;;;;5080530;28;20190;-79
2020/12/12 12:22:20;;;;;;;25.60;13.97;;;11.90;99.90;;;;;;5081176;28;20195;-80
2020/12/12 12:24:46;;;;;;;24.23;12.97;;;12.00;99.90;;;;;;5082406;28;20224;-77
2020/12/12 12:27:14;;;;;;;29.07;14.30;;;12.10;99.90;;;;;;5079137;28;20616;-80
2020/12/12 12:29:40;;;;;;;28.30;13.70;;;12.10;99.90;;;;;;5079803;28;20202;-77
2020/12/12 12:32:07;;;;;;;29.70;13.73;;;12.00;99.90;;;;;;5068031;28;20203;-79
2020/12/12 12:34:35;;;;;;;25.27;12.50;;;11.90;99.90;;;;;;5077040;28;20226;-77
2020/12/12 12:37:01;;;;;;;29.23;13.93;;;11.80;99.90;;;;;;5078976;28;20208;-78
2020/12/12 12:39:28;;;;;;;29.27;13.47;;;11.70;99.90;;;;;;5084506;28;20201;-80
2020/12/12 12:41:55;;;;;;;25.77;13.40;;;11.60;99.90;;;;;;5087942;28;20217;-77